American Progress — WDI4961 — position and weather

sailwx.info

Track history (hours):
 
Tides and Currents Weather Stations Pressure Air Temp Water Temp Dewpoint Dewpoint Depression Visibility Wind Speed Wind Dir Waves Ship Positions

American Progress

Owner: American Commercial Lines LLC, Jeffersonville, IN. More information available from US FCC via Universal Licensing System and Coast Guard Vessel Documentation Center.

Last reported at 2017-Nov-20 00:31 UTC. Time now 2017-Nov-21 17:37 UTC.
Position N 30°04' W 093°30'.

Length 23 m; draft 3.7 m.

Type: Towing. MMSI: 367703790.

Date/timePositionNaut miles runAvg speedWind from/ knotsBaromVisibWave heightAir tempDewpointWater temp
2017-Nov-20 00:31N 30°04' W 093°30'2 5.0
2017-Nov-20 00:01N 30°04' W 093°33'3 5.1
2017-Nov-19 23:24N 30°04' W 093°37'2 5.4
2017-Nov-19 23:00N 30°04' W 093°39'  
2017-Nov-16 10:09N 29°59' W 093°53'0 0.2
2017-Nov-16 10:00N 29°59' W 093°53'0 0.8
2017-Nov-16 09:30N 29°59' W 093°52'1 1.8
2017-Nov-16 08:55N 29°58' W 093°51'  
2017-Nov-12 20:55N 30°04' W 093°40'4 4.7
2017-Nov-12 20:07N 30°04' W 093°35'1 5.4
2017-Nov-12 19:55N 30°04' W 093°34'2 4.9
2017-Nov-12 19:29N 30°04' W 093°32'2 4.9
2017-Nov-12 18:59N 30°04' W 093°29'6 4.7
2017-Nov-12 17:38N 30°04' W 093°21'1 4.2
2017-Nov-12 17:27N 30°04' W 093°21'2 3.6
2017-Nov-12 16:59N 30°05' W 093°20'2 3.5
2017-Nov-12 16:30N 30°05' W 093°18'1 2.2
2017-Nov-12 15:59N 30°05' W 093°17'1 1.8
2017-Nov-12 15:29N 30°04' W 093°16'0 0.0
2017-Nov-12 14:59N 30°04' W 093°16'0 0.0
2017-Nov-12 14:27N 30°04' W 093°16'0 0.0
2017-Nov-12 13:55N 30°04' W 093°16'0 0.1
2017-Nov-12 13:27N 30°04' W 093°16'1 2.7
2017-Nov-12 12:59N 30°03' W 093°16'2 3.7
2017-Nov-12 12:29N 30°01' W 093°14'3 4.3
2017-Nov-12 11:53N 29°59' W 093°13'42 4.3
2017-Nov-12 01:57N 29°53' W 092°24'3 3.8
2017-Nov-12 01:09N 29°51' W 092°22'1 3.9
2017-Nov-12 00:59N 29°51' W 092°21'10 3.1
2017-Nov-11 21:39N 29°47' W 092°10'0 0.1
2017-Nov-11 21:29N 29°47' W 092°10'0 0.1
2017-Nov-11 20:59N 29°47' W 092°10'1 1.6
2017-Nov-11 20:29N 29°47' W 092°09'2 4.9
2017-Nov-11 19:59N 29°48' W 092°06'2 4.8
2017-Nov-11 19:29N 29°49' W 092°04'2 4.9
2017-Nov-11 18:59N 29°49' W 092°01'2 5.0
2017-Nov-11 18:29N 29°50' W 091°58'  
Track history (hours):
 
Tides and Currents Weather Stations Pressure Air Temp Water Temp Dewpoint Dewpoint Depression Visibility Wind Speed Wind Dir Waves Ship Positions

American Progress

Owner: American Commercial Lines LLC, Jeffersonville, IN. More information available from US FCC via Universal Licensing System and Coast Guard Vessel Documentation Center.

Last reported at 2017-Nov-20 00:31 UTC. Time now 2017-Nov-21 17:37 UTC.
Position N 30°04' W 093°30'.

Length 23 m; draft 3.7 m.

Type: Towing. MMSI: 367703790.

Date/timePositionNaut miles runAvg speedWind from/ knotsBaromVisibWave heightAir tempDewpointWater temp
2017-Nov-20 00:31N 30°04' W 093°30'2 5.0
2017-Nov-20 00:01N 30°04' W 093°33'3 5.1
2017-Nov-19 23:24N 30°04' W 093°37'2 5.4
2017-Nov-19 23:00N 30°04' W 093°39'  
2017-Nov-16 10:09N 29°59' W 093°53'0 0.2
2017-Nov-16 10:00N 29°59' W 093°53'0 0.8
2017-Nov-16 09:30N 29°59' W 093°52'1 1.8
2017-Nov-16 08:55N 29°58' W 093°51'  
2017-Nov-12 20:55N 30°04' W 093°40'4 4.7
2017-Nov-12 20:07N 30°04' W 093°35'1 5.4
2017-Nov-12 19:55N 30°04' W 093°34'2 4.9
2017-Nov-12 19:29N 30°04' W 093°32'2 4.9
2017-Nov-12 18:59N 30°04' W 093°29'6 4.7
2017-Nov-12 17:38N 30°04' W 093°21'1 4.2
2017-Nov-12 17:27N 30°04' W 093°21'2 3.6
2017-Nov-12 16:59N 30°05' W 093°20'2 3.5
2017-Nov-12 16:30N 30°05' W 093°18'1 2.2
2017-Nov-12 15:59N 30°05' W 093°17'1 1.8
2017-Nov-12 15:29N 30°04' W 093°16'0 0.0
2017-Nov-12 14:59N 30°04' W 093°16'0 0.0
2017-Nov-12 14:27N 30°04' W 093°16'0 0.0
2017-Nov-12 13:55N 30°04' W 093°16'0 0.1
2017-Nov-12 13:27N 30°04' W 093°16'1 2.7
2017-Nov-12 12:59N 30°03' W 093°16'2 3.7
2017-Nov-12 12:29N 30°01' W 093°14'3 4.3
2017-Nov-12 11:53N 29°59' W 093°13'42 4.3
2017-Nov-12 01:57N 29°53' W 092°24'3 3.8
2017-Nov-12 01:09N 29°51' W 092°22'1 3.9
2017-Nov-12 00:59N 29°51' W 092°21'10 3.1
2017-Nov-11 21:39N 29°47' W 092°10'0 0.1
2017-Nov-11 21:29N 29°47' W 092°10'0 0.1
2017-Nov-11 20:59N 29°47' W 092°10'1 1.6
2017-Nov-11 20:29N 29°47' W 092°09'2 4.9
2017-Nov-11 19:59N 29°48' W 092°06'2 4.8
2017-Nov-11 19:29N 29°49' W 092°04'2 4.9
2017-Nov-11 18:59N 29°49' W 092°01'2 5.0
2017-Nov-11 18:29N 29°50' W 091°58'  

Dump ship's entire track history